createdAt,value
2023-02-04T00:01:58.829Z,9.30
2023-02-04T00:04:27.034Z,4.53
2023-02-04T00:06:58.151Z,4.23
2023-02-04T00:09:29.823Z,8.07
2023-02-04T00:12:00.347Z,4.70
2023-02-04T00:14:30.629Z,6.90
2023-02-04T00:17:02.060Z,7.87
2023-02-04T00:19:42.663Z,7.53
2023-02-04T00:22:15.962Z,5.43
2023-02-04T00:24:48.297Z,5.60
2023-02-04T00:27:19.103Z,5.33
2023-02-04T00:29:50.320Z,6.17
2023-02-04T00:32:23.547Z,5.03
2023-02-04T00:34:56.181Z,5.17
2023-02-04T00:37:25.594Z,7.93
2023-02-04T00:39:59.620Z,5.53
2023-02-04T00:42:27.446Z,5.53
2023-02-04T00:44:55.463Z,7.23
2023-02-04T00:47:25.771Z,3.83
2023-02-04T00:49:55.802Z,7.30
2023-02-04T00:52:29.640Z,5.20
2023-02-04T00:55:01.101Z,6.97
2023-02-04T00:57:35.345Z,5.90
2023-02-04T01:00:05.241Z,7.50
2023-02-04T01:02:36.853Z,4.43
2023-02-04T01:05:07.166Z,5.30
2023-02-04T01:07:34.970Z,6.33
2023-02-04T01:10:14.833Z,4.70
2023-02-04T01:12:45.336Z,4.47
2023-02-04T01:15:16.958Z,5.67
2023-02-04T01:17:48.679Z,4.43
2023-02-04T01:20:19.357Z,6.97
2023-02-04T01:22:48.340Z,5.87
2023-02-04T01:25:20.282Z,4.60
2023-02-04T01:27:57.416Z,6.17
2023-02-04T01:30:26.565Z,4.10
2023-02-04T01:32:56.505Z,4.73
2023-02-04T01:35:27.036Z,5.40
2023-02-04T01:37:57.515Z,6.83
2023-02-04T01:40:31.275Z,4.27
2023-02-04T01:43:03.263Z,2.80
2023-02-04T01:45:35.680Z,5.33
2023-02-04T01:48:07.955Z,5.63
2023-02-04T01:50:39.502Z,5.60
2023-02-04T01:53:10.645Z,3.93
2023-02-04T01:55:43.999Z,3.87
2023-02-04T01:58:15.227Z,5.23
2023-02-04T02:00:45.947Z,6.57
2023-02-04T02:03:17.602Z,3.73
2023-02-04T02:05:55.861Z,5.67
2023-02-04T02:08:24.990Z,3.90
2023-02-04T02:10:56.298Z,6.23
2023-02-04T02:13:26.456Z,5.23
2023-02-04T02:15:56.750Z,7.40
2023-02-04T02:18:28.330Z,3.10
2023-02-04T02:20:57.974Z,5.33
2023-02-04T02:24:02.072Z,6.57
2023-02-04T02:26:36.861Z,5.90
2023-02-04T02:29:10.496Z,4.87
2023-02-04T02:31:41.000Z,5.33
2023-02-04T02:34:14.848Z,4.53
2023-02-04T02:36:49.694Z,4.53
2023-02-04T02:39:19.218Z,4.17
2023-02-04T02:41:51.017Z,5.23
2023-02-04T02:44:23.288Z,4.70
2023-02-04T02:46:54.580Z,4.73
2023-02-04T02:49:28.726Z,5.43
2023-02-04T02:52:01.902Z,4.50
2023-02-04T02:54:31.878Z,4.93
2023-02-04T02:57:00.485Z,4.77
2023-02-04T02:59:32.258Z,8.37
2023-02-04T03:02:08.860Z,5.57
2023-02-04T03:04:49.222Z,4.53
2023-02-04T03:07:30.980Z,4.63
2023-02-04T03:10:01.542Z,3.93
2023-02-04T03:12:32.086Z,3.20
2023-02-04T03:15:02.618Z,5.53
2023-02-04T03:17:34.321Z,5.30
2023-02-04T03:20:10.006Z,5.80
2023-02-04T03:22:46.829Z,5.83
2023-02-04T03:28:01.725Z,4.37
2023-02-04T03:30:32.213Z,5.33
2023-02-04T03:33:04.193Z,5.17
2023-02-04T03:35:32.237Z,5.23
2023-02-04T03:38:03.445Z,4.90
2023-02-04T03:40:33.961Z,6.57
2023-02-04T03:43:04.076Z,3.60
2023-02-04T03:45:44.686Z,3.70
2023-02-04T03:48:16.457Z,5.33
2023-02-04T03:50:46.820Z,4.13
2023-02-04T03:53:18.866Z,3.67
2023-02-04T03:55:50.425Z,3.37
2023-02-04T03:58:23.097Z,3.33
2023-02-04T04:00:53.292Z,4.00
2023-02-04T04:03:23.441Z,4.80
2023-02-04T04:05:55.953Z,3.00
2023-02-04T04:08:26.038Z,4.20
2023-02-04T04:10:57.062Z,6.10
2023-02-04T04:13:31.153Z,4.03
2023-02-04T04:18:43.832Z,3.33
2023-02-04T04:21:14.290Z,6.67
2023-02-04T04:23:45.780Z,3.97
2023-02-04T04:26:17.164Z,3.87
2023-02-04T04:28:48.650Z,11.10
2023-02-04T04:31:21.036Z,5.17
2023-02-04T04:33:52.838Z,4.00
2023-02-04T04:36:23.408Z,3.50
2023-02-04T04:38:59.144Z,4.37
2023-02-04T04:41:29.181Z,3.97
2023-02-04T04:43:58.289Z,3.47
2023-02-04T04:46:27.307Z,4.03
2023-02-04T04:48:59.882Z,3.47
2023-02-04T04:51:34.490Z,4.67
2023-02-04T04:54:05.607Z,5.27
2023-02-04T04:56:40.482Z,5.80
2023-02-04T04:59:12.560Z,3.13
2023-02-04T05:01:40.127Z,5.00
2023-02-04T05:04:15.387Z,3.00
2023-02-04T05:06:49.818Z,4.90
2023-02-04T05:09:20.202Z,5.20
2023-02-04T05:11:52.735Z,4.03
2023-02-04T05:14:24.172Z,4.03
2023-02-04T05:16:57.903Z,3.57
2023-02-04T05:19:26.950Z,5.70
2023-02-04T05:21:59.902Z,3.77
2023-02-04T05:24:31.012Z,5.63
2023-02-04T05:27:02.625Z,4.73
2023-02-04T05:32:17.505Z,3.57
2023-02-04T05:34:46.809Z,3.40
2023-02-04T05:37:24.060Z,3.57
2023-02-04T05:39:53.546Z,5.60
2023-02-04T05:42:24.966Z,3.60
2023-02-04T05:44:56.953Z,4.57
2023-02-04T05:47:27.132Z,4.90
2023-02-04T05:49:57.598Z,3.20
2023-02-04T05:52:28.706Z,3.70
2023-02-04T05:55:00.402Z,5.23
2023-02-04T05:57:29.789Z,5.17
2023-02-04T06:00:01.405Z,4.00
2023-02-04T06:02:33.579Z,5.87
2023-02-04T06:07:50.233Z,6.10
2023-02-04T06:10:24.052Z,5.57
2023-02-04T06:12:55.048Z,5.20
2023-02-04T06:15:26.981Z,6.30
2023-02-04T06:17:56.302Z,4.83
2023-02-04T06:20:26.937Z,3.13
2023-02-04T06:22:57.372Z,5.40
2023-02-04T06:25:30.053Z,5.13
2023-02-04T06:28:01.489Z,5.13
2023-02-04T06:30:32.895Z,6.87
2023-02-04T06:33:05.709Z,6.50
2023-02-04T06:35:36.746Z,5.17
2023-02-04T06:38:08.309Z,5.60
2023-02-04T06:40:47.198Z,7.73
2023-02-04T06:43:17.763Z,4.27
2023-02-04T06:45:49.253Z,3.57
2023-02-04T06:48:37.412Z,4.03
2023-02-04T06:51:05.982Z,4.90
2023-02-04T06:53:37.695Z,5.33
2023-02-04T06:56:09.914Z,3.83
2023-02-04T06:58:37.444Z,4.50
2023-02-04T07:01:08.365Z,3.90
2023-02-04T07:03:42.857Z,4.50
2023-02-04T07:06:16.058Z,7.43
2023-02-04T07:08:47.203Z,39.40
2023-02-04T07:11:18.599Z,44.50
2023-02-04T07:13:45.810Z,35.40
2023-02-04T07:16:18.002Z,40.50
2023-02-04T07:18:51.359Z,36.93
2023-02-04T07:21:21.666Z,35.87
2023-02-04T07:23:52.000Z,27.03
2023-02-04T07:26:25.802Z,27.57
2023-02-04T07:28:57.387Z,34.30
2023-02-04T07:31:27.165Z,26.93
2023-02-04T07:34:03.309Z,26.63
2023-02-04T07:36:35.868Z,27.40
2023-02-04T07:39:07.738Z,16.93
2023-02-04T07:41:39.473Z,22.40
2023-02-04T07:44:19.984Z,18.57
2023-02-04T07:46:49.191Z,17.20
2023-02-04T07:49:19.108Z,17.30
2023-02-04T07:51:47.214Z,17.33
2023-02-04T07:54:17.020Z,11.40
2023-02-04T07:56:46.152Z,15.73
2023-02-04T07:59:16.225Z,17.27
2023-02-04T08:04:32.702Z,14.73
2023-02-04T08:07:02.078Z,18.50
2023-02-04T08:09:33.594Z,15.60
2023-02-04T08:12:04.818Z,13.77
2023-02-04T08:14:32.819Z,15.53
2023-02-04T08:17:00.856Z,12.43
2023-02-04T08:19:27.766Z,14.97
2023-02-04T08:21:57.658Z,9.37
2023-02-04T08:24:27.883Z,9.30
2023-02-04T08:26:57.239Z,15.07
2023-02-04T08:29:27.523Z,12.87
2023-02-04T08:31:56.632Z,10.60
2023-02-04T08:34:28.395Z,12.93
2023-02-04T08:37:01.539Z,10.57
2023-02-04T08:39:32.774Z,12.23
2023-02-04T08:42:04.667Z,13.37
2023-02-04T08:44:31.356Z,11.13
2023-02-04T08:47:00.131Z,10.80
2023-02-04T08:49:33.459Z,15.10
2023-02-04T08:52:05.094Z,10.17
2023-02-04T08:54:37.445Z,10.53
2023-02-04T08:57:08.843Z,9.53
2023-02-04T08:59:39.066Z,8.07
2023-02-04T09:02:11.955Z,8.87
2023-02-04T09:04:43.278Z,9.13
2023-02-04T09:07:16.287Z,11.80
2023-02-04T09:09:47.998Z,8.47
2023-02-04T09:12:17.554Z,9.33
2023-02-04T09:17:30.155Z,9.17
2023-02-04T09:20:00.470Z,8.93
2023-02-04T09:22:31.127Z,6.13
2023-02-04T09:24:59.625Z,6.07
2023-02-04T09:27:31.133Z,9.37
2023-02-04T09:30:07.762Z,6.50
2023-02-04T09:32:38.478Z,6.33
2023-02-04T09:35:11.994Z,9.43
2023-02-04T09:37:48.322Z,7.80
2023-02-04T09:40:18.052Z,7.50
2023-02-04T09:42:56.866Z,5.93
2023-02-04T09:45:32.740Z,6.93
2023-02-04T09:48:06.869Z,5.83
2023-02-04T09:50:38.220Z,6.90
2023-02-04T09:53:17.249Z,6.73
2023-02-04T09:55:53.541Z,7.00
2023-02-04T09:58:34.505Z,6.60
2023-02-04T10:01:31.567Z,6.60
2023-02-04T10:04:04.925Z,6.33
2023-02-04T10:06:35.294Z,9.63
2023-02-04T10:09:01.966Z,7.90
2023-02-04T10:11:44.235Z,7.80
2023-02-04T10:14:35.964Z,8.07
2023-02-04T10:17:07.496Z,8.33
2023-02-04T10:19:41.166Z,6.70
2023-02-04T10:22:23.497Z,6.63
2023-02-04T10:24:55.265Z,5.37
2023-02-04T10:27:26.859Z,6.43
2023-02-04T10:30:01.771Z,7.03
2023-02-04T10:32:36.386Z,8.67
2023-02-04T10:35:19.089Z,8.87
2023-02-04T10:37:53.848Z,5.47
2023-02-04T10:40:44.318Z,6.43
2023-02-04T10:43:19.649Z,8.00
2023-02-04T10:45:50.353Z,8.20
2023-02-04T10:48:21.021Z,8.03
2023-02-04T10:50:51.538Z,8.30
2023-02-04T10:53:45.316Z,9.40
2023-02-04T10:56:23.645Z,6.93
2023-02-04T10:58:56.139Z,6.30
2023-02-04T11:01:32.592Z,8.77
2023-02-04T11:04:04.787Z,6.63
2023-02-04T11:06:36.861Z,9.10
2023-02-04T11:09:31.406Z,8.13
2023-02-04T11:12:01.722Z,8.80
2023-02-04T11:14:30.332Z,8.40
2023-02-04T11:17:03.091Z,8.53
2023-02-04T11:19:39.407Z,6.57
2023-02-04T11:22:23.595Z,8.67
2023-02-04T11:24:54.647Z,8.10
2023-02-04T11:27:27.726Z,9.40
2023-02-04T11:33:06.466Z,6.63
2023-02-04T11:35:37.089Z,9.20
2023-02-04T11:38:25.438Z,10.37
2023-02-04T11:41:05.346Z,7.87
2023-02-04T11:43:50.461Z,8.87
2023-02-04T11:46:19.989Z,8.77
2023-02-04T11:48:56.670Z,7.33
2023-02-04T11:51:35.892Z,9.70
2023-02-04T11:54:07.832Z,7.23
2023-02-04T11:56:37.490Z,7.60
2023-02-04T11:59:11.336Z,12.63
2023-02-04T12:01:43.425Z,8.47
2023-02-04T12:04:27.474Z,10.37
2023-02-04T12:07:13.742Z,11.13
2023-02-04T12:09:48.575Z,9.40
2023-02-04T12:12:28.064Z,7.20
2023-02-04T12:15:20.932Z,6.93
2023-02-04T12:18:03.708Z,13.93
2023-02-04T12:20:35.310Z,7.63
2023-02-04T12:23:08.055Z,7.57
2023-02-04T12:25:43.183Z,7.43
2023-02-04T12:28:14.873Z,9.83
2023-02-04T12:30:44.294Z,6.47
2023-02-04T12:33:16.160Z,7.17
2023-02-04T12:35:48.164Z,7.07
2023-02-04T12:38:20.654Z,7.60
2023-02-04T12:40:56.293Z,7.77
2023-02-04T12:43:31.213Z,10.27
2023-02-04T12:46:03.384Z,10.13
2023-02-04T12:48:35.821Z,7.90
2023-02-04T12:51:07.782Z,8.07
2023-02-04T12:53:36.511Z,7.10
2023-02-04T12:56:06.464Z,9.73
2023-02-04T12:58:39.053Z,10.47
2023-02-04T13:01:10.320Z,8.03
2023-02-04T13:03:48.680Z,9.33
2023-02-04T13:06:19.848Z,7.97
2023-02-04T13:08:52.118Z,8.70
2023-02-04T13:11:24.922Z,5.97
2023-02-04T13:13:54.383Z,7.53
2023-02-04T13:16:24.931Z,7.30
2023-02-04T13:18:55.719Z,8.20
2023-02-04T13:21:30.862Z,8.17
2023-02-04T13:24:02.350Z,8.07
2023-02-04T13:26:37.623Z,7.23
2023-02-04T13:29:09.660Z,8.80
2023-02-04T13:31:43.600Z,7.37
2023-02-04T13:34:12.785Z,7.87
2023-02-04T13:36:40.390Z,7.60
2023-02-04T13:39:12.312Z,7.83
2023-02-04T13:41:43.561Z,8.50
2023-02-04T13:44:15.503Z,8.40
2023-02-04T13:46:45.007Z,7.93
2023-02-04T13:49:17.502Z,10.10
2023-02-04T13:51:49.170Z,11.83
2023-02-04T13:54:16.914Z,9.03
2023-02-04T13:56:48.885Z,13.37
2023-02-04T13:59:20.894Z,12.17
2023-02-04T14:01:56.630Z,7.53
2023-02-04T14:04:29.457Z,9.07
2023-02-04T14:07:01.085Z,7.77
2023-02-04T14:09:30.964Z,8.03
2023-02-04T14:12:00.878Z,8.63
2023-02-04T14:14:32.606Z,10.40
2023-02-04T14:17:04.514Z,9.33
2023-02-04T14:19:40.031Z,6.97
2023-02-04T14:22:14.061Z,8.13
2023-02-04T14:24:43.782Z,10.10
2023-02-04T14:27:17.720Z,7.50
2023-02-04T14:29:48.417Z,10.57
2023-02-04T14:32:23.154Z,8.13
2023-02-04T14:34:54.017Z,9.87
2023-02-04T14:37:28.811Z,8.50
2023-02-04T14:40:04.475Z,8.50
2023-02-04T14:42:34.942Z,6.77
2023-02-04T14:45:07.884Z,6.03
2023-02-04T14:47:41.164Z,9.63
2023-02-04T14:50:31.428Z,7.00
2023-02-04T14:53:04.702Z,8.93
2023-02-04T14:55:34.364Z,9.17
2023-02-04T14:58:06.709Z,5.93
2023-02-04T15:00:36.358Z,6.43
2023-02-04T15:03:07.077Z,6.87
2023-02-04T15:05:38.115Z,7.80
2023-02-04T15:08:11.116Z,5.67
2023-02-04T15:10:42.051Z,5.63
2023-02-04T15:13:25.515Z,6.97
2023-02-04T15:15:57.053Z,6.23
2023-02-04T15:18:27.853Z,7.77
2023-02-04T15:20:58.344Z,8.00
2023-02-04T15:23:30.655Z,8.50
2023-02-04T15:25:59.546Z,7.77
2023-02-04T15:28:32.229Z,7.93
2023-02-04T15:31:07.349Z,6.97
2023-02-04T15:33:35.558Z,8.03
2023-02-04T15:36:03.786Z,8.67
2023-02-04T15:38:35.556Z,5.70
2023-02-04T15:41:15.794Z,5.77
2023-02-04T15:43:46.588Z,6.50
2023-02-04T15:46:18.619Z,6.43
2023-02-04T15:48:49.650Z,8.87
2023-02-04T15:51:17.033Z,11.70
2023-02-04T15:53:47.417Z,5.87
2023-02-04T15:56:22.724Z,6.73
2023-02-04T15:58:51.012Z,5.67
2023-02-04T16:01:23.144Z,8.37
2023-02-04T16:06:44.976Z,5.27
2023-02-04T16:09:21.672Z,6.60
2023-02-04T16:11:53.454Z,5.10
2023-02-04T16:14:25.466Z,7.50
2023-02-04T16:16:56.149Z,5.90
2023-02-04T16:19:25.637Z,5.17
2023-02-04T16:21:54.778Z,5.63
2023-02-04T16:24:26.741Z,8.47
2023-02-04T16:27:00.395Z,6.27
2023-02-04T16:29:31.024Z,4.97
2023-02-04T16:32:03.270Z,5.07
2023-02-04T16:34:33.693Z,7.40
2023-02-04T16:37:03.829Z,6.17
2023-02-04T16:39:34.632Z,4.97
2023-02-04T16:42:09.191Z,6.13
2023-02-04T16:44:40.295Z,5.73
2023-02-04T16:47:12.944Z,5.03
2023-02-04T16:49:47.073Z,6.73
2023-02-04T16:52:18.083Z,6.43
2023-02-04T16:54:49.965Z,4.70
2023-02-04T16:57:22.415Z,5.40
2023-02-04T16:59:49.889Z,7.17
2023-02-04T17:02:20.870Z,7.43
2023-02-04T17:04:50.949Z,4.53
2023-02-04T17:07:23.745Z,4.93
2023-02-04T17:09:55.712Z,4.77
2023-02-04T17:12:26.692Z,4.10
2023-02-04T17:14:58.818Z,7.50
2023-02-04T17:20:14.607Z,5.63
2023-02-04T17:22:44.338Z,6.97
2023-02-04T17:25:12.996Z,5.90
2023-02-04T17:27:47.467Z,5.23
2023-02-04T17:30:24.577Z,5.83
2023-02-04T17:32:55.389Z,50.20
2023-02-04T17:35:23.944Z,142.17
2023-02-04T17:37:54.258Z,84.73
2023-02-04T17:40:34.638Z,61.87
2023-02-04T17:43:07.181Z,76.93
2023-02-04T17:45:37.709Z,66.50
2023-02-04T17:48:08.990Z,59.60
2023-02-04T17:50:39.875Z,44.60
2023-02-04T17:53:15.773Z,47.10
2023-02-04T17:55:46.811Z,44.53
2023-02-04T17:58:22.014Z,41.73
2023-02-04T18:00:52.081Z,43.70
2023-02-04T18:03:24.165Z,35.77
2023-02-04T18:05:56.471Z,34.87
2023-02-04T18:08:37.513Z,39.20
2023-02-04T18:11:13.012Z,27.27
2023-02-04T18:13:40.350Z,26.53
2023-02-04T18:16:32.433Z,32.23
2023-02-04T18:19:28.026Z,29.67
2023-02-04T18:21:58.852Z,22.37
2023-02-04T18:24:34.444Z,25.80
2023-02-04T18:27:18.029Z,19.20
2023-02-04T18:29:57.159Z,21.67
2023-02-04T18:32:40.359Z,18.37
2023-02-04T18:35:29.754Z,16.27
2023-02-04T18:37:56.873Z,18.70
2023-02-04T18:40:27.251Z,18.53
2023-02-04T18:43:12.925Z,15.90
2023-02-04T18:45:43.726Z,16.13
2023-02-04T18:48:24.117Z,16.27
2023-02-04T18:51:00.902Z,19.83
2023-02-04T18:53:33.531Z,15.20
2023-02-04T18:56:02.367Z,17.70
2023-02-04T18:58:41.757Z,14.83
2023-02-04T19:01:28.382Z,18.03
2023-02-04T19:04:04.208Z,13.77
2023-02-04T19:06:43.372Z,16.20
2023-02-04T19:09:14.641Z,19.30
2023-02-04T19:11:55.423Z,13.50
2023-02-04T19:14:37.521Z,14.67
2023-02-04T19:17:22.222Z,12.97
2023-02-04T19:20:08.596Z,12.47
2023-02-04T19:22:43.338Z,15.20
2023-02-04T19:25:33.380Z,11.87
2023-02-04T19:28:06.063Z,11.80
2023-02-04T19:30:34.865Z,12.90
2023-02-04T19:33:13.900Z,12.90
2023-02-04T19:35:48.789Z,12.07
2023-02-04T19:38:35.480Z,17.63
2023-02-04T19:41:16.256Z,13.97
2023-02-04T19:43:46.079Z,10.20
2023-02-04T19:46:25.106Z,13.47
2023-02-04T19:48:57.023Z,11.90
2023-02-04T19:51:29.501Z,13.07
2023-02-04T19:54:10.438Z,13.20
2023-02-04T19:56:42.988Z,10.77
2023-02-04T19:59:27.083Z,10.93
2023-02-04T20:02:24.209Z,11.57
2023-02-04T20:05:03.294Z,13.83
2023-02-04T20:07:38.585Z,14.07
2023-02-04T20:10:15.557Z,11.07
2023-02-04T20:12:46.297Z,9.83
2023-02-04T20:15:28.881Z,12.60
2023-02-04T20:17:59.157Z,11.40
2023-02-04T20:20:35.806Z,12.50
2023-02-04T20:23:21.326Z,12.07
2023-02-04T20:25:51.666Z,10.53
2023-02-04T20:31:28.913Z,9.53
2023-02-04T20:36:49.368Z,10.33
2023-02-04T20:39:34.038Z,9.10
2023-02-04T20:42:26.453Z,10.20
2023-02-04T20:44:57.308Z,9.23
2023-02-04T20:47:27.137Z,10.77
2023-02-04T20:50:00.859Z,12.50
2023-02-04T20:52:51.805Z,11.90
2023-02-04T20:58:41.928Z,11.50
2023-02-04T21:01:24.995Z,10.23
2023-02-04T21:03:56.944Z,12.63
2023-02-04T21:06:42.134Z,8.03
2023-02-04T21:09:31.196Z,10.43
2023-02-04T21:12:03.046Z,9.00
2023-02-04T21:14:34.653Z,10.73
2023-02-04T21:17:05.177Z,12.40
2023-02-04T21:19:35.400Z,7.90
2023-02-04T21:22:07.547Z,8.87
2023-02-04T21:24:40.287Z,9.00
2023-02-04T21:27:10.316Z,9.13
2023-02-04T21:29:42.490Z,8.63
2023-02-04T21:32:13.442Z,9.43
2023-02-04T21:34:45.321Z,7.87
2023-02-04T21:37:16.173Z,7.23
2023-02-04T21:39:44.524Z,8.20
2023-02-04T21:42:20.989Z,6.90
2023-02-04T21:44:53.152Z,10.73
2023-02-04T21:47:22.589Z,10.20
2023-02-04T21:49:51.103Z,8.07
2023-02-04T21:52:22.293Z,9.30
2023-02-04T21:54:54.343Z,8.83
2023-02-04T21:57:21.689Z,7.83
2023-02-04T21:59:53.508Z,8.43
2023-02-04T22:02:27.720Z,7.00
2023-02-04T22:04:58.618Z,10.00
2023-02-04T22:07:31.072Z,9.50
2023-02-04T22:10:03.079Z,9.07
2023-02-04T22:12:34.300Z,9.23
2023-02-04T22:15:23.642Z,9.17
2023-02-04T22:17:56.660Z,8.73
2023-02-04T22:20:27.990Z,6.33
2023-02-04T22:23:00.062Z,10.47
2023-02-04T22:25:38.193Z,9.37
2023-02-04T22:28:08.081Z,8.63
2023-02-04T22:30:40.309Z,8.17
2023-02-04T22:33:11.693Z,7.77
2023-02-04T22:35:43.931Z,8.93
2023-02-04T22:38:16.434Z,7.50
2023-02-04T22:40:46.089Z,7.97
2023-02-04T22:43:17.074Z,7.00
2023-02-04T22:46:00.134Z,7.00
2023-02-04T22:48:29.912Z,10.60
2023-02-04T22:51:01.279Z,10.90
2023-02-04T22:53:32.588Z,9.10
2023-02-04T22:56:01.998Z,6.13
2023-02-04T22:58:36.716Z,7.33
2023-02-04T23:01:08.522Z,7.83
2023-02-04T23:03:40.576Z,8.97
2023-02-04T23:06:11.291Z,6.57
2023-02-04T23:08:43.271Z,7.60
2023-02-04T23:11:14.767Z,8.57
2023-02-04T23:13:46.212Z,8.70
2023-02-04T23:16:15.940Z,7.13
2023-02-04T23:18:43.486Z,6.70
2023-02-04T23:21:14.073Z,7.33
2023-02-04T23:23:45.856Z,7.57
2023-02-04T23:26:16.940Z,9.07
2023-02-04T23:28:48.907Z,6.73
2023-02-04T23:31:20.936Z,7.23
2023-02-04T23:33:53.706Z,5.70
2023-02-04T23:36:27.559Z,5.47
2023-02-04T23:38:58.394Z,4.97
2023-02-04T23:41:26.290Z,7.87
2023-02-04T23:43:57.034Z,5.30
2023-02-04T23:46:28.678Z,7.57
2023-02-04T23:49:00.232Z,5.33
2023-02-04T23:51:27.597Z,5.50
2023-02-04T23:53:59.438Z,5.43
2023-02-04T23:56:30.424Z,6.37
2023-02-04T23:59:05.887Z,6.97
